createdAt,value
2022-12-14T00:00:14.549Z,965.71
2022-12-14T00:01:14.459Z,965.72
2022-12-14T00:02:14.438Z,965.74
2022-12-14T00:03:14.408Z,965.72
2022-12-14T00:04:14.192Z,965.69
2022-12-14T00:05:14.102Z,965.65
2022-12-14T00:06:14.016Z,965.63
2022-12-14T00:07:13.923Z,965.64
2022-12-14T00:08:13.839Z,965.60
2022-12-14T00:09:13.742Z,965.60
2022-12-14T00:10:13.653Z,965.60
2022-12-14T00:11:13.567Z,965.62
2022-12-14T00:12:13.476Z,965.63
2022-12-14T00:13:13.392Z,965.55
2022-12-14T00:14:13.355Z,965.55
2022-12-14T00:15:13.211Z,965.48
2022-12-14T00:16:13.168Z,965.49
2022-12-14T00:17:13.031Z,965.51
2022-12-14T00:18:15.680Z,965.47
2022-12-14T00:19:12.850Z,965.48
2022-12-14T00:20:12.759Z,965.49
2022-12-14T00:21:12.674Z,965.53
2022-12-14T00:22:12.591Z,965.47
2022-12-14T00:23:12.491Z,965.49
2022-12-14T00:24:12.408Z,965.44
2022-12-14T00:25:12.319Z,965.44
2022-12-14T00:26:12.231Z,965.41
2022-12-14T00:27:12.135Z,965.40
2022-12-14T00:28:12.046Z,965.42
2022-12-14T00:29:11.959Z,965.45
2022-12-14T00:30:11.871Z,965.47
2022-12-14T00:31:11.801Z,965.48
2022-12-14T00:32:11.690Z,965.51
2022-12-14T00:33:11.603Z,965.46
2022-12-14T00:34:11.512Z,965.41
2022-12-14T00:35:11.422Z,965.40
2022-12-14T00:36:11.336Z,965.31
2022-12-14T00:37:11.238Z,965.27
2022-12-14T00:38:11.158Z,965.26
2022-12-14T00:39:11.066Z,965.28
2022-12-14T00:40:10.976Z,965.31
2022-12-14T00:41:10.887Z,965.26
2022-12-14T00:42:10.799Z,965.27
2022-12-14T00:43:10.710Z,965.27
2022-12-14T00:44:10.618Z,965.24
2022-12-14T00:45:10.531Z,965.23
2022-12-14T00:46:10.510Z,965.21
2022-12-14T00:47:10.359Z,965.19
2022-12-14T00:48:10.259Z,965.19
2022-12-14T00:49:10.168Z,965.14
2022-12-14T00:50:10.083Z,965.17
2022-12-14T00:51:09.996Z,965.17
2022-12-14T00:52:09.902Z,965.17
2022-12-14T00:53:09.813Z,965.20
2022-12-14T00:54:09.728Z,965.19
2022-12-14T00:55:09.632Z,965.17
2022-12-14T00:56:09.545Z,965.20
2022-12-14T00:57:09.454Z,965.19
2022-12-14T00:58:09.365Z,965.20
2022-12-14T00:59:09.280Z,965.25
2022-12-14T01:00:09.194Z,965.27
2022-12-14T01:01:09.109Z,965.35
2022-12-14T01:02:09.114Z,965.40
2022-12-14T01:03:08.925Z,965.42
2022-12-14T01:04:08.937Z,965.38
2022-12-14T01:05:08.743Z,965.44
2022-12-14T01:06:08.655Z,965.44
2022-12-14T01:07:08.565Z,965.41
2022-12-14T01:08:08.472Z,965.46
2022-12-14T01:09:08.387Z,965.47
2022-12-14T01:10:08.302Z,965.49
2022-12-14T01:11:08.223Z,965.45
2022-12-14T01:12:08.121Z,965.38
2022-12-14T01:13:08.028Z,965.36
2022-12-14T01:14:07.945Z,965.33
2022-12-14T01:15:07.851Z,965.37
2022-12-14T01:16:07.835Z,965.36
2022-12-14T01:17:07.671Z,965.39
2022-12-14T01:18:07.584Z,965.42
2022-12-14T01:19:07.496Z,965.36
2022-12-14T01:20:07.410Z,965.34
2022-12-14T01:21:07.322Z,965.33
2022-12-14T01:22:07.228Z,965.33
2022-12-14T01:23:07.142Z,965.33
2022-12-14T01:24:07.048Z,965.37
2022-12-14T01:25:06.959Z,965.36
2022-12-14T01:26:06.867Z,965.33
2022-12-14T01:27:06.781Z,965.36
2022-12-14T01:28:06.689Z,965.38
2022-12-14T01:29:06.604Z,965.36
2022-12-14T01:30:06.514Z,965.31
2022-12-14T01:31:06.437Z,965.36
2022-12-14T01:32:06.334Z,965.33
2022-12-14T01:33:06.242Z,965.29
2022-12-14T01:34:06.156Z,965.27
2022-12-14T01:35:06.076Z,965.27
2022-12-14T01:36:05.985Z,965.27
2022-12-14T01:37:05.886Z,965.21
2022-12-14T01:38:05.799Z,965.23
2022-12-14T01:39:05.706Z,965.19
2022-12-14T01:40:05.617Z,965.17
2022-12-14T01:41:05.528Z,965.14
2022-12-14T01:42:05.442Z,965.13
2022-12-14T01:43:05.355Z,965.14
2022-12-14T01:44:05.264Z,965.11
2022-12-14T01:45:05.192Z,965.03
2022-12-14T01:46:05.115Z,965.10
2022-12-14T01:47:11.970Z,965.11
2022-12-14T01:48:04.906Z,965.13
2022-12-14T01:49:04.837Z,965.07
2022-12-14T01:50:04.725Z,965.08
2022-12-14T01:51:04.645Z,965.03
2022-12-14T01:52:04.546Z,965.01
2022-12-14T01:53:04.460Z,965.01
2022-12-14T01:54:04.370Z,964.96
2022-12-14T01:55:04.280Z,964.96
2022-12-14T01:56:04.188Z,964.93
2022-12-14T01:57:04.105Z,964.86
2022-12-14T01:58:04.015Z,964.88
2022-12-14T01:59:03.927Z,964.87
2022-12-14T02:00:07.365Z,964.86
2022-12-14T02:01:03.755Z,964.81
2022-12-14T02:02:03.835Z,964.83
2022-12-14T02:03:03.569Z,964.82
2022-12-14T02:04:03.476Z,964.85
2022-12-14T02:05:03.390Z,964.84
2022-12-14T02:06:03.300Z,964.82
2022-12-14T02:07:03.220Z,964.85
2022-12-14T02:08:03.127Z,964.89
2022-12-14T02:09:03.036Z,964.91
2022-12-14T02:10:02.940Z,964.91
2022-12-14T02:11:02.851Z,964.93
2022-12-14T02:12:02.764Z,964.93
2022-12-14T02:13:02.676Z,964.93
2022-12-14T02:14:02.584Z,964.93
2022-12-14T02:15:02.501Z,964.93
2022-12-14T02:16:02.496Z,964.97
2022-12-14T02:17:02.318Z,965.03
2022-12-14T02:18:02.227Z,965.01
2022-12-14T02:19:02.140Z,964.97
2022-12-14T02:20:02.047Z,964.92
2022-12-14T02:21:01.964Z,964.93
2022-12-14T02:22:01.875Z,964.89
2022-12-14T02:23:01.792Z,964.89
2022-12-14T02:24:01.695Z,964.87
2022-12-14T02:25:01.605Z,964.90
2022-12-14T02:26:01.516Z,964.91
2022-12-14T02:27:01.426Z,964.92
2022-12-14T02:28:01.336Z,964.90
2022-12-14T02:29:01.248Z,964.87
2022-12-14T02:30:01.162Z,964.79
2022-12-14T02:31:01.120Z,964.78
2022-12-14T02:32:00.982Z,964.76
2022-12-14T02:33:00.890Z,964.66
2022-12-14T02:34:00.804Z,964.66
2022-12-14T02:35:00.714Z,964.59
2022-12-14T02:36:00.621Z,964.62
2022-12-14T02:37:00.544Z,964.66
2022-12-14T02:38:00.444Z,964.65
2022-12-14T02:39:00.357Z,964.61
2022-12-14T02:40:00.266Z,964.61
2022-12-14T02:41:00.177Z,964.59
2022-12-14T02:42:00.089Z,964.52
2022-12-14T02:43:00.001Z,964.53
2022-12-14T02:43:59.913Z,964.54
2022-12-14T02:44:59.823Z,964.54
2022-12-14T02:45:59.731Z,964.59
2022-12-14T02:46:59.704Z,964.58
2022-12-14T02:47:59.552Z,964.54
2022-12-14T02:48:59.468Z,964.54
2022-12-14T02:49:59.375Z,964.52
2022-12-14T02:50:59.286Z,964.47
2022-12-14T02:51:59.196Z,964.40
2022-12-14T02:52:59.110Z,964.35
2022-12-14T02:53:59.017Z,964.28
2022-12-14T02:54:58.929Z,964.22
2022-12-14T02:55:58.838Z,964.20
2022-12-14T02:56:58.750Z,964.18
2022-12-14T02:57:58.659Z,964.10
2022-12-14T02:58:58.577Z,964.13
2022-12-14T02:59:58.482Z,964.13
2022-12-14T03:00:58.411Z,964.14
2022-12-14T03:01:58.365Z,964.12
2022-12-14T03:02:58.229Z,964.11
2022-12-14T03:03:58.125Z,964.03
2022-12-14T03:04:58.043Z,964.01
2022-12-14T03:05:57.951Z,963.99
2022-12-14T03:06:57.915Z,964.03
2022-12-14T03:07:57.771Z,963.95
2022-12-14T03:08:57.679Z,963.97
2022-12-14T03:09:57.593Z,963.99
2022-12-14T03:10:57.509Z,963.95
2022-12-14T03:11:57.417Z,963.96
2022-12-14T03:12:57.324Z,963.97
2022-12-14T03:13:57.234Z,963.95
2022-12-14T03:14:57.147Z,963.92
2022-12-14T03:15:57.076Z,963.92
2022-12-14T03:16:56.968Z,963.93
2022-12-14T03:17:56.878Z,963.90
2022-12-14T03:18:56.788Z,963.91
2022-12-14T03:19:56.696Z,963.95
2022-12-14T03:20:56.615Z,963.92
2022-12-14T03:21:56.521Z,963.93
2022-12-14T03:22:56.442Z,963.95
2022-12-14T03:23:56.341Z,963.94
2022-12-14T03:24:56.257Z,963.97
2022-12-14T03:25:56.166Z,963.99
2022-12-14T03:26:56.081Z,964.02
2022-12-14T03:27:55.987Z,964.02
2022-12-14T03:28:55.899Z,964.02
2022-12-14T03:29:55.805Z,964.00
2022-12-14T03:31:00.681Z,963.99
2022-12-14T03:31:55.663Z,963.97
2022-12-14T03:32:55.540Z,963.97
2022-12-14T03:33:55.462Z,963.99
2022-12-14T03:34:55.362Z,964.02
2022-12-14T03:35:55.275Z,964.06
2022-12-14T03:36:55.186Z,964.02
2022-12-14T03:37:55.095Z,964.01
2022-12-14T03:38:55.010Z,963.98
2022-12-14T03:39:54.917Z,963.96
2022-12-14T03:40:54.826Z,963.97
2022-12-14T03:41:54.737Z,963.93
2022-12-14T03:42:54.653Z,963.91
2022-12-14T03:43:54.556Z,963.90
2022-12-14T03:44:54.474Z,963.90
2022-12-14T03:45:54.414Z,963.85
2022-12-14T03:46:54.293Z,963.86
2022-12-14T03:47:54.210Z,963.79
2022-12-14T03:48:54.272Z,963.79
2022-12-14T03:49:54.031Z,963.81
2022-12-14T03:50:53.936Z,963.81
2022-12-14T03:51:53.847Z,963.80
2022-12-14T03:52:53.757Z,963.78
2022-12-14T03:53:53.670Z,963.81
2022-12-14T03:54:53.582Z,963.83
2022-12-14T03:55:53.492Z,963.82
2022-12-14T03:56:53.570Z,963.83
2022-12-14T03:57:53.320Z,963.82
2022-12-14T03:58:57.168Z,963.81
2022-12-14T03:59:53.134Z,963.82
2022-12-14T04:00:53.098Z,963.82
2022-12-14T04:01:53.157Z,963.82
2022-12-14T04:02:52.928Z,963.81
2022-12-14T04:03:52.773Z,963.74
2022-12-14T04:04:52.691Z,963.72
2022-12-14T04:05:52.600Z,963.70
2022-12-14T04:06:52.509Z,963.69
2022-12-14T04:07:52.422Z,963.71
2022-12-14T04:08:52.330Z,963.74
2022-12-14T04:09:52.240Z,963.78
2022-12-14T04:10:52.156Z,963.76
2022-12-14T04:11:52.061Z,963.81
2022-12-14T04:12:51.984Z,963.79
2022-12-14T04:13:51.885Z,963.75
2022-12-14T04:14:51.804Z,963.74
2022-12-14T04:15:51.708Z,963.70
2022-12-14T04:16:51.678Z,963.70
2022-12-14T04:17:51.532Z,963.68
2022-12-14T04:18:55.824Z,963.69
2022-12-14T04:19:51.350Z,963.66
2022-12-14T04:20:51.268Z,963.68
2022-12-14T04:21:51.176Z,963.63
2022-12-14T04:22:51.092Z,963.65
2022-12-14T04:23:50.996Z,963.61
2022-12-14T04:24:50.904Z,963.65
2022-12-14T04:25:50.821Z,963.65
2022-12-14T04:26:50.730Z,963.68
2022-12-14T04:27:50.637Z,963.70
2022-12-14T04:28:50.556Z,963.64
2022-12-14T04:29:50.459Z,963.62
2022-12-14T04:30:50.387Z,963.61
2022-12-14T04:31:50.297Z,963.58
2022-12-14T04:32:50.227Z,963.58
2022-12-14T04:33:50.105Z,963.57
2022-12-14T04:34:50.016Z,963.54
2022-12-14T04:35:49.928Z,963.52
2022-12-14T04:36:49.844Z,963.49
2022-12-14T04:37:49.747Z,963.45
2022-12-14T04:38:49.659Z,963.43
2022-12-14T04:39:49.568Z,963.37
2022-12-14T04:40:49.484Z,963.40
2022-12-14T04:41:49.394Z,963.36
2022-12-14T04:42:49.304Z,963.33
2022-12-14T04:43:49.299Z,963.23
2022-12-14T04:44:49.131Z,963.26
2022-12-14T04:45:49.082Z,963.22
2022-12-14T04:46:48.954Z,963.18
2022-12-14T04:47:48.863Z,963.18
2022-12-14T04:48:48.768Z,963.14
2022-12-14T04:49:49.161Z,963.16
2022-12-14T04:50:48.594Z,963.14
2022-12-14T04:51:48.523Z,963.14
2022-12-14T04:52:48.411Z,963.13
2022-12-14T04:53:48.324Z,963.09
2022-12-14T04:54:48.239Z,963.08
2022-12-14T04:55:48.946Z,963.07
2022-12-14T04:56:48.061Z,963.05
2022-12-14T04:57:47.970Z,963.06
2022-12-14T04:58:47.881Z,962.99
2022-12-14T04:59:47.792Z,962.93
2022-12-14T05:00:47.734Z,962.94
2022-12-14T05:01:49.147Z,962.87
2022-12-14T05:02:47.589Z,962.84
2022-12-14T05:03:47.435Z,962.81
2022-12-14T05:04:47.345Z,962.78
2022-12-14T05:05:47.252Z,962.74
2022-12-14T05:06:47.173Z,962.74
2022-12-14T05:07:47.080Z,962.75
2022-12-14T05:08:46.991Z,962.77
2022-12-14T05:09:46.898Z,962.69
2022-12-14T05:10:46.813Z,962.68
2022-12-14T05:11:54.695Z,962.65
2022-12-14T05:12:46.632Z,962.67
2022-12-14T05:13:49.033Z,962.69
2022-12-14T05:14:46.458Z,962.73
2022-12-14T05:15:46.363Z,962.76
2022-12-14T05:16:49.065Z,962.77
2022-12-14T05:17:46.183Z,962.79
2022-12-14T05:18:46.100Z,962.78
2022-12-14T05:19:48.903Z,962.79
2022-12-14T05:20:45.921Z,962.79
2022-12-14T05:21:45.832Z,962.78
2022-12-14T05:22:45.748Z,962.79
2022-12-14T05:23:45.655Z,962.76
2022-12-14T05:24:45.565Z,962.79
2022-12-14T05:25:45.478Z,962.81
2022-12-14T05:26:45.383Z,962.77
2022-12-14T05:27:45.292Z,962.74
2022-12-14T05:28:50.241Z,962.67
2022-12-14T05:29:45.118Z,962.67
2022-12-14T05:30:48.739Z,962.66
2022-12-14T05:31:49.125Z,962.65
2022-12-14T05:32:44.852Z,962.69
2022-12-14T05:33:44.762Z,962.68
2022-12-14T05:34:44.680Z,962.66
2022-12-14T05:35:44.581Z,962.67
2022-12-14T05:36:44.493Z,962.61
2022-12-14T05:37:44.402Z,962.61
2022-12-14T05:38:44.316Z,962.60
2022-12-14T05:39:44.230Z,962.57
2022-12-14T05:40:44.142Z,962.51
2022-12-14T05:41:44.053Z,962.52
2022-12-14T05:42:46.800Z,962.47
2022-12-14T05:43:43.875Z,962.45
2022-12-14T05:44:43.787Z,962.43
2022-12-14T05:45:43.709Z,962.43
2022-12-14T05:46:43.605Z,962.36
2022-12-14T05:47:43.517Z,962.34
2022-12-14T05:48:48.834Z,962.34
2022-12-14T05:49:43.336Z,962.36
2022-12-14T05:50:43.254Z,962.31
2022-12-14T05:51:43.154Z,962.39
2022-12-14T05:52:43.070Z,962.38
2022-12-14T05:53:42.980Z,962.44
2022-12-14T05:54:42.895Z,962.41
2022-12-14T05:55:42.802Z,962.37
2022-12-14T05:56:42.720Z,962.34
2022-12-14T05:57:42.626Z,962.33
2022-12-14T05:58:42.535Z,962.33
2022-12-14T05:59:42.445Z,962.34
2022-12-14T06:00:42.361Z,962.33
2022-12-14T06:01:42.325Z,962.29
2022-12-14T06:02:42.214Z,962.31
2022-12-14T06:03:42.092Z,962.29
2022-12-14T06:04:42.037Z,962.23
2022-12-14T06:05:41.914Z,962.19
2022-12-14T06:06:41.824Z,962.19
2022-12-14T06:07:41.736Z,962.25
2022-12-14T06:08:41.645Z,962.19
2022-12-14T06:09:41.556Z,962.24
2022-12-14T06:10:41.470Z,962.25
2022-12-14T06:11:41.377Z,962.25
2022-12-14T06:12:41.288Z,962.27
2022-12-14T06:13:41.208Z,962.28
2022-12-14T06:14:41.129Z,962.32
2022-12-14T06:15:41.095Z,962.30
2022-12-14T06:16:40.937Z,962.33
2022-12-14T06:17:40.845Z,962.33
2022-12-14T06:18:40.756Z,962.36
2022-12-14T06:19:40.671Z,962.34
2022-12-14T06:20:40.582Z,962.28
2022-12-14T06:21:40.493Z,962.34
2022-12-14T06:22:45.749Z,962.24
2022-12-14T06:23:40.313Z,962.20
2022-12-14T06:24:40.222Z,962.19
2022-12-14T06:25:40.134Z,962.13
2022-12-14T06:26:40.041Z,962.16
2022-12-14T06:27:39.954Z,962.16
2022-12-14T06:28:39.866Z,962.16
2022-12-14T06:29:39.782Z,962.15
2022-12-14T06:30:39.740Z,962.11
2022-12-14T06:31:39.601Z,962.08
2022-12-14T06:32:39.509Z,962.05
2022-12-14T06:33:39.428Z,962.00
2022-12-14T06:34:42.247Z,962.04
2022-12-14T06:35:39.244Z,962.05
2022-12-14T06:36:39.156Z,961.98
2022-12-14T06:37:39.065Z,962.03
2022-12-14T06:38:38.980Z,962.12
2022-12-14T06:39:38.888Z,962.08
2022-12-14T06:40:38.803Z,962.14
2022-12-14T06:41:38.712Z,962.15
2022-12-14T06:42:38.621Z,962.10
2022-12-14T06:43:38.532Z,962.10
2022-12-14T06:44:38.441Z,962.09
2022-12-14T06:45:38.360Z,962.09
2022-12-14T06:46:38.373Z,962.09
2022-12-14T06:47:38.176Z,962.06
2022-12-14T06:48:38.090Z,962.09
2022-12-14T06:49:38.001Z,962.08
2022-12-14T06:50:37.911Z,962.13
2022-12-14T06:51:37.826Z,962.13
2022-12-14T06:52:37.736Z,962.13
2022-12-14T06:53:37.644Z,962.15
2022-12-14T06:54:37.554Z,962.18
2022-12-14T06:55:37.464Z,962.17
2022-12-14T06:56:37.375Z,962.18
2022-12-14T06:57:37.291Z,962.16
2022-12-14T06:58:37.195Z,962.20
2022-12-14T06:59:37.110Z,962.13
2022-12-14T07:00:37.021Z,962.09
2022-12-14T07:01:37.151Z,962.11
2022-12-14T07:02:37.043Z,962.10
2022-12-14T07:03:36.811Z,962.06
2022-12-14T07:04:36.662Z,962.03
2022-12-14T07:05:36.577Z,962.01
2022-12-14T07:06:36.491Z,962.02
2022-12-14T07:07:36.399Z,961.97
2022-12-14T07:08:36.309Z,961.95
2022-12-14T07:09:36.218Z,961.95
2022-12-14T07:10:36.138Z,961.96
2022-12-14T07:11:36.040Z,961.88
2022-12-14T07:12:35.952Z,961.83
2022-12-14T07:13:35.875Z,961.80
2022-12-14T07:14:35.772Z,961.79
2022-12-14T07:15:35.726Z,961.83
2022-12-14T07:16:35.597Z,961.77
2022-12-14T07:17:35.523Z,961.76
2022-12-14T07:18:35.422Z,961.70
2022-12-14T07:19:35.335Z,961.66
2022-12-14T07:20:35.244Z,961.71
2022-12-14T07:21:35.157Z,961.76
2022-12-14T07:22:35.062Z,961.76
2022-12-14T07:23:35.907Z,961.77
2022-12-14T07:24:34.887Z,961.83
2022-12-14T07:25:34.803Z,961.77
2022-12-14T07:26:34.722Z,961.68
2022-12-14T07:27:34.616Z,961.56
2022-12-14T07:28:34.536Z,961.50
2022-12-14T07:29:35.083Z,961.49
2022-12-14T07:30:34.350Z,961.54
2022-12-14T07:31:34.337Z,961.71
2022-12-14T07:32:34.171Z,961.81
2022-12-14T07:33:34.084Z,961.84
2022-12-14T07:34:33.995Z,961.91
2022-12-14T07:35:33.909Z,961.88
2022-12-14T07:36:33.819Z,961.90
2022-12-14T07:37:33.731Z,961.88
2022-12-14T07:38:33.640Z,961.88
2022-12-14T07:39:33.551Z,961.90
2022-12-14T07:40:33.463Z,961.89
2022-12-14T07:41:33.379Z,961.92
2022-12-14T07:42:33.284Z,961.92
2022-12-14T07:43:33.199Z,961.87
2022-12-14T07:44:33.165Z,961.87
2022-12-14T07:45:33.021Z,961.84
2022-12-14T07:46:32.967Z,961.82
2022-12-14T07:47:32.839Z,961.77
2022-12-14T07:48:32.752Z,961.75
2022-12-14T07:49:32.665Z,961.73
2022-12-14T07:50:32.580Z,961.73
2022-12-14T07:51:32.496Z,961.74
2022-12-14T07:52:37.288Z,961.75
2022-12-14T07:53:32.311Z,961.75
2022-12-14T07:54:32.223Z,961.68
2022-12-14T07:55:32.129Z,961.58
2022-12-14T07:56:32.045Z,961.58
2022-12-14T07:57:31.955Z,961.53
2022-12-14T07:58:31.863Z,961.53
2022-12-14T07:59:31.777Z,961.65
2022-12-14T08:00:31.687Z,961.65
2022-12-14T08:01:31.727Z,961.69
2022-12-14T08:02:31.687Z,961.68
2022-12-14T08:03:31.934Z,961.71
2022-12-14T08:04:31.357Z,961.70
2022-12-14T08:05:31.238Z,961.73
2022-12-14T08:06:31.158Z,961.75
2022-12-14T08:07:31.062Z,961.71
2022-12-14T08:08:30.976Z,961.69
2022-12-14T08:09:30.887Z,961.69
2022-12-14T08:10:34.377Z,961.69
2022-12-14T08:11:30.711Z,961.64
2022-12-14T08:12:30.617Z,961.67
2022-12-14T08:13:31.052Z,961.69
2022-12-14T08:14:30.440Z,961.68
2022-12-14T08:15:30.365Z,961.69
2022-12-14T08:16:30.281Z,961.63
2022-12-14T08:17:30.177Z,961.62
2022-12-14T08:18:30.088Z,961.60
2022-12-14T08:19:29.999Z,961.63
2022-12-14T08:20:29.914Z,961.63
2022-12-14T08:21:29.823Z,961.68
2022-12-14T08:22:29.732Z,961.63
2022-12-14T08:23:30.116Z,961.62
2022-12-14T08:24:29.552Z,961.56
2022-12-14T08:25:29.467Z,961.53
2022-12-14T08:26:35.143Z,961.49
2022-12-14T08:27:29.286Z,961.46
2022-12-14T08:28:29.194Z,961.36
2022-12-14T08:29:29.109Z,961.32
2022-12-14T08:30:29.035Z,961.30
2022-12-14T08:31:29.050Z,961.32
2022-12-14T08:32:34.055Z,961.35
2022-12-14T08:33:29.156Z,961.33
2022-12-14T08:34:28.669Z,961.24
2022-12-14T08:35:28.581Z,961.21
2022-12-14T08:36:28.487Z,961.27
2022-12-14T08:37:28.400Z,961.22
2022-12-14T08:38:28.311Z,961.25
2022-12-14T08:39:28.220Z,961.20
2022-12-14T08:40:28.133Z,961.15
2022-12-14T08:41:28.052Z,961.12
2022-12-14T08:42:27.957Z,961.04
2022-12-14T08:43:28.287Z,961.02
2022-12-14T08:44:27.778Z,961.00
2022-12-14T08:45:27.691Z,960.97
2022-12-14T08:46:27.681Z,960.92
2022-12-14T08:47:27.514Z,960.88
2022-12-14T08:48:27.422Z,960.81
2022-12-14T08:49:32.095Z,960.75
2022-12-14T08:50:27.243Z,960.78
2022-12-14T08:51:27.157Z,960.79
2022-12-14T08:52:27.069Z,960.82
2022-12-14T08:53:27.279Z,960.73
2022-12-14T08:54:26.887Z,960.76
2022-12-14T08:55:30.147Z,960.72
2022-12-14T08:56:26.720Z,960.70
2022-12-14T08:57:26.623Z,960.72
2022-12-14T08:58:26.535Z,960.67
2022-12-14T08:59:59.676Z,960.72
2022-12-14T09:00:26.356Z,960.71
2022-12-14T09:01:32.166Z,960.70
2022-12-14T09:02:26.298Z,960.72
2022-12-14T09:03:26.255Z,960.76
2022-12-14T09:04:26.002Z,960.77
2022-12-14T09:05:25.914Z,960.77
2022-12-14T09:06:25.826Z,960.79
2022-12-14T09:07:25.735Z,960.81
2022-12-14T09:08:25.653Z,960.74
2022-12-14T09:09:25.563Z,960.77
2022-12-14T09:10:25.473Z,960.88
2022-12-14T09:11:25.383Z,960.87
2022-12-14T09:12:25.290Z,960.82
2022-12-14T09:13:25.204Z,960.84
2022-12-14T09:14:25.115Z,960.82
2022-12-14T09:15:25.058Z,960.80
2022-12-14T09:16:25.105Z,960.90
2022-12-14T09:17:24.850Z,960.99
2022-12-14T09:18:24.768Z,961.14
2022-12-14T09:19:24.675Z,961.08
2022-12-14T09:20:24.586Z,961.02
2022-12-14T09:21:24.501Z,960.97
2022-12-14T09:22:24.603Z,960.93
2022-12-14T09:23:24.319Z,960.86
2022-12-14T09:24:24.228Z,960.79
2022-12-14T09:25:24.144Z,960.75
2022-12-14T09:26:24.048Z,960.74
2022-12-14T09:27:23.961Z,960.81
2022-12-14T09:28:23.875Z,960.78
2022-12-14T09:29:23.797Z,960.75
2022-12-14T09:30:26.864Z,960.81
2022-12-14T09:31:23.634Z,960.76
2022-12-14T09:32:23.522Z,960.76
2022-12-14T09:33:23.434Z,960.76
2022-12-14T09:34:23.344Z,960.67
2022-12-14T09:35:23.255Z,960.65
2022-12-14T09:36:23.163Z,960.62
2022-12-14T09:37:23.082Z,960.60
2022-12-14T09:38:22.988Z,960.55
2022-12-14T09:39:22.903Z,960.53
2022-12-14T09:40:22.811Z,960.50
2022-12-14T09:41:22.721Z,960.48
2022-12-14T09:42:22.635Z,960.47
2022-12-14T09:43:22.546Z,960.49
2022-12-14T09:44:22.456Z,960.54
2022-12-14T09:45:22.371Z,960.56
2022-12-14T09:46:22.293Z,960.56
2022-12-14T09:47:22.195Z,960.57
2022-12-14T09:48:22.105Z,960.54
2022-12-14T09:49:22.014Z,960.59
2022-12-14T09:50:21.931Z,960.60
2022-12-14T09:51:21.904Z,960.54
2022-12-14T09:52:21.747Z,960.53
2022-12-14T09:53:21.659Z,960.56
2022-12-14T09:54:21.572Z,960.56
2022-12-14T09:55:21.486Z,960.54
2022-12-14T09:56:21.395Z,960.51
2022-12-14T09:57:21.326Z,960.51
2022-12-14T09:58:21.213Z,960.44
2022-12-14T09:59:21.125Z,960.44
2022-12-14T10:00:21.039Z,960.45
2022-12-14T10:01:21.067Z,960.46
2022-12-14T10:02:36.393Z,960.50
2022-12-14T10:03:21.008Z,960.55
2022-12-14T10:04:20.768Z,960.58
2022-12-14T10:05:20.604Z,960.58
2022-12-14T10:06:20.508Z,960.64
2022-12-14T10:07:20.443Z,960.66
2022-12-14T10:08:20.327Z,960.70
2022-12-14T10:09:20.245Z,960.72
2022-12-14T10:10:20.152Z,960.65
2022-12-14T10:11:20.073Z,960.69
2022-12-14T10:12:19.973Z,960.71
2022-12-14T10:13:19.885Z,960.70
2022-12-14T10:14:19.813Z,960.73
2022-12-14T10:15:19.707Z,960.66
2022-12-14T10:16:19.662Z,960.60
2022-12-14T10:17:19.535Z,960.58
2022-12-14T10:18:49.344Z,960.57
2022-12-14T10:19:19.357Z,960.53
2022-12-14T10:20:19.268Z,960.52
2022-12-14T10:21:19.179Z,960.50
2022-12-14T10:22:19.201Z,960.46
2022-12-14T10:23:22.827Z,960.40
2022-12-14T10:24:18.921Z,960.35
2022-12-14T10:25:18.830Z,960.31
2022-12-14T10:26:18.741Z,960.29
2022-12-14T10:27:18.647Z,960.26
2022-12-14T10:28:18.563Z,960.11
2022-12-14T10:29:18.468Z,960.05
2022-12-14T10:30:18.413Z,960.04
2022-12-14T10:31:18.325Z,960.06
2022-12-14T10:32:18.206Z,960.07
2022-12-14T10:33:18.126Z,960.03
2022-12-14T10:34:18.031Z,960.04
2022-12-14T10:35:17.957Z,959.99
2022-12-14T10:36:17.859Z,959.94
2022-12-14T10:37:17.762Z,960.03
2022-12-14T10:38:17.681Z,960.06
2022-12-14T10:39:17.588Z,960.03
2022-12-14T10:40:28.874Z,960.03
2022-12-14T10:41:17.412Z,960.02
2022-12-14T10:42:17.321Z,960.06
2022-12-14T10:43:17.234Z,960.04
2022-12-14T10:44:17.262Z,959.98
2022-12-14T10:45:39.686Z,959.96
2022-12-14T10:46:17.057Z,960.00
2022-12-14T10:47:16.880Z,959.92
2022-12-14T10:48:16.798Z,959.94
2022-12-14T10:49:16.708Z,959.92
2022-12-14T10:50:16.676Z,959.95
2022-12-14T10:51:16.521Z,959.89
2022-12-14T10:52:16.439Z,959.89
2022-12-14T10:53:16.352Z,959.90
2022-12-14T10:54:16.263Z,959.85
2022-12-14T10:55:16.175Z,959.86
2022-12-14T10:56:16.140Z,959.79
2022-12-14T10:57:15.993Z,959.75
2022-12-14T10:58:15.910Z,959.72
2022-12-14T10:59:15.819Z,959.68
2022-12-14T11:00:22.895Z,959.56
2022-12-14T11:01:15.866Z,959.58
2022-12-14T11:02:15.773Z,959.56
2022-12-14T11:03:15.581Z,959.53
2022-12-14T11:04:15.377Z,959.48
2022-12-14T11:05:15.292Z,959.44
2022-12-14T11:06:15.209Z,959.42
2022-12-14T11:07:15.110Z,959.38
2022-12-14T11:08:15.029Z,959.40
2022-12-14T11:09:14.934Z,959.41
2022-12-14T11:10:14.918Z,959.39
2022-12-14T11:11:18.836Z,959.35
2022-12-14T11:12:14.698Z,959.33
2022-12-14T11:13:14.579Z,959.30
2022-12-14T11:14:14.497Z,959.35
2022-12-14T11:15:14.402Z,959.37
2022-12-14T11:16:14.376Z,959.40
2022-12-14T11:17:14.354Z,959.41
2022-12-14T11:18:14.205Z,959.38
2022-12-14T11:19:14.052Z,959.38
2022-12-14T11:20:14.012Z,959.41
2022-12-14T11:21:13.871Z,959.43
2022-12-14T11:22:20.250Z,959.41
2022-12-14T11:23:13.695Z,959.42
2022-12-14T11:24:13.610Z,959.39
2022-12-14T11:25:13.520Z,959.38
2022-12-14T11:26:13.434Z,959.42
2022-12-14T11:27:13.344Z,959.38
2022-12-14T11:28:13.257Z,959.37
2022-12-14T11:29:13.165Z,959.35
2022-12-14T11:30:13.140Z,959.39
2022-12-14T11:31:13.125Z,959.38
2022-12-14T11:32:12.905Z,959.39
2022-12-14T11:33:12.812Z,959.38
2022-12-14T11:34:15.579Z,959.36
2022-12-14T11:35:12.634Z,959.30
2022-12-14T11:36:12.550Z,959.29
2022-12-14T11:37:12.462Z,959.30
2022-12-14T11:38:12.378Z,959.36
2022-12-14T11:39:12.281Z,959.33
2022-12-14T11:40:12.195Z,959.33
2022-12-14T11:41:12.289Z,959.32
2022-12-14T11:42:12.018Z,959.32
2022-12-14T11:43:11.934Z,959.33
2022-12-14T11:44:11.840Z,959.27
2022-12-14T11:45:11.751Z,959.25
2022-12-14T11:46:11.756Z,959.23
2022-12-14T11:47:11.581Z,959.21
2022-12-14T11:48:11.493Z,959.22
2022-12-14T11:49:11.400Z,959.23
2022-12-14T11:50:11.314Z,959.22
2022-12-14T11:51:11.224Z,959.19
2022-12-14T11:52:11.136Z,959.25
2022-12-14T11:53:11.835Z,959.33
2022-12-14T11:54:10.965Z,959.35
2022-12-14T11:55:10.868Z,959.38
2022-12-14T11:56:10.790Z,959.36
2022-12-14T11:57:10.693Z,959.31
2022-12-14T11:58:10.610Z,959.27
2022-12-14T11:59:10.517Z,959.25
2022-12-14T12:00:10.430Z,959.30
2022-12-14T12:01:10.388Z,959.31
2022-12-14T12:02:10.308Z,959.26
2022-12-14T12:03:10.192Z,959.23
2022-12-14T12:04:10.138Z,959.20
2022-12-14T12:05:09.988Z,959.22
2022-12-14T12:06:09.903Z,959.25
2022-12-14T12:07:09.810Z,959.26
2022-12-14T12:08:09.724Z,959.27
2022-12-14T12:09:09.634Z,959.26
2022-12-14T12:10:09.560Z,959.24
2022-12-14T12:11:09.458Z,959.28
2022-12-14T12:12:09.372Z,959.28
2022-12-14T12:13:09.282Z,959.29
2022-12-14T12:14:09.194Z,959.37
2022-12-14T12:15:09.101Z,959.33
2022-12-14T12:16:09.136Z,959.34
2022-12-14T12:17:08.928Z,959.37
2022-12-14T12:18:08.846Z,959.35
2022-12-14T12:19:12.162Z,959.37
2022-12-14T12:20:08.664Z,959.38
2022-12-14T12:21:08.575Z,959.34
2022-12-14T12:22:08.490Z,959.31
2022-12-14T12:23:08.401Z,959.31
2022-12-14T12:24:08.313Z,959.28
2022-12-14T12:25:25.745Z,959.28
2022-12-14T12:26:08.135Z,959.23
2022-12-14T12:27:08.047Z,959.21